首页
METAR-TAF:

METAR-TAF

机场 :

里加国际机场

里加, 拉脱维亚

纬度: 56-55N, 经度: 023-58E, 海拔: 10米

当前天气观测

该预报发布于28分钟前的16:20 UTC
风速15节,风向
温度 5°C
湿度 93%
气压 990 hPa
能见度10公里或以上
多云层高于900英尺
阴天层高于1600英尺
小雨

METAR: EVRA 081620Z 19015KT 9999 -RA BKN009 OVC016 05/04 Q0990 R18/290195 BECMG BKN012 OVC016

时间: 18:48 (16:48 UTC)

预报

该预报发布于2小时和42分钟前的14:06 UTC
预报有效从08日的 15点(UTC)到 09日的 15点(UTC)
风速12节,风向
能见度10公里或以上
阴天层高于1000英尺
短暂存在
从 08日的 15点(UTC)到 08日的 21点(UTC)
风速17节,风向,有时为30节阵风
多云层高于500英尺
短暂存在
从 08日的 21点(UTC)到 09日的 03点(UTC)
风速15节,风向南转西南,有时为25节阵风
成为
从 09日的 03点(UTC)到 09日的 04点(UTC)
多云层高于2000英尺
短暂存在
从 09日的 05点(UTC)到 09日的 15点(UTC)
风速15节,风向南转西南,有时为26节阵风
散云层高于1500英尺, 积雨云.

TAF: EVRA 081406Z 0815/0915 19012KT 9999 OVC010 TEMPO 0815/0821 18017G30KT BKN005 TEMPO 0821/0903 20015G25KT BECMG 0903/0904 BKN020 TEMPO 0905/0915 20015G26KT SCT015CB

超过4000个机场的气象观测和天气预报(METAR&TAF报告)。

可查询的气象台以黄色和红色小点在地图上表示。

将鼠标移到小点上方,可查看气象台名称。

然后点击查看天气观测和预报。

如需切换地图:点击带黑十字的绿色按钮放大地图;点击带横线的绿色按钮缩小地图;或者点击绿色箭头查看邻近地区的地图。


METAR-TAF: